Time;durP1;ratioP1;P1;durP2;ratioP2;P2;SDS_P1;SDS_P2;PMS_P1;PMS_P2;Temp;Humidity;BMP_temperature;BMP_pressure;BME280_temperature;BME280_humidity;BME280_pressure;Samples;Min_cycle;Max_cycle;Signal;HPM_P1;HPM_P2
2022/06/19 00:01:43;;;;;;;5.10;4.37;;;;;;;16.97;60.70;99963.99;1814794;77;22009;-87
2022/06/19 00:04:10;;;;;;;5.70;4.55;;;;;;;16.97;60.86;99959.44;1819552;77;22103;-85
2022/06/19 00:06:36;;;;;;;4.53;4.12;;;;;;;16.97;60.90;99962.13;1820736;77;21064;-87
2022/06/19 00:09:04;;;;;;;8.63;5.03;;;;;;;16.97;60.87;99958.10;1841556;77;21067;-87
2022/06/19 00:11:33;;;;;;;5.08;4.58;;;;;;;16.99;59.97;99964.61;1829350;78;21105;-85
2022/06/19 00:14:01;;;;;;;5.15;4.50;;;;;;;17.01;59.81;99967.92;1816323;77;21543;-87
2022/06/19 00:16:29;;;;;;;4.72;4.25;;;;;;;17.02;59.81;99968.24;1810636;77;20978;-86
2022/06/19 00:18:57;;;;;;;8.75;4.45;;;;;;;17.01;60.23;99968.73;1825810;77;21068;-87
2022/06/19 00:21:23;;;;;;;5.50;4.50;;;;;;;17.02;60.07;99970.41;1801580;77;21540;-83
2022/06/19 00:23:50;;;;;;;4.30;3.75;;;;;;;17.01;60.26;99963.89;1825652;78;21010;-86
2022/06/19 00:26:16;;;;;;;4.72;4.20;;;;;;;17.00;59.85;99965.75;1831132;78;21073;-86
2022/06/19 00:28:46;;;;;;;4.42;3.90;;;;;;;17.01;59.86;99962.55;1833649;78;21532;-90
2022/06/19 00:31:11;;;;;;;6.12;4.72;;;;;;;17.02;59.82;99965.56;1825518;76;21425;-87
2022/06/19 00:33:38;;;;;;;4.78;3.85;;;;;;;17.02;59.86;99960.19;1838844;76;20968;-88
2022/06/19 00:36:05;;;;;;;5.28;4.03;;;;;;;17.02;59.84;99959.67;1831677;77;21528;-87
2022/06/19 00:38:32;;;;;;;4.70;4.30;;;;;;;17.01;59.89;99962.55;1841532;77;20994;-87
2022/06/19 00:41:00;;;;;;;4.75;3.85;;;;;;;17.00;59.99;99963.08;1826156;78;21331;-87
2022/06/19 00:43:26;;;;;;;6.12;4.53;;;;;;;17.01;60.07;99966.05;1815994;77;21087;-84
2022/06/19 00:45:53;;;;;;;5.00;4.35;;;;;;;17.00;60.33;99967.09;1817265;77;20981;-84
2022/06/19 00:48:32;;;;;;;5.72;4.15;;;;;;;16.98;60.52;99962.45;1824669;77;21599;-82
2022/06/19 00:51:02;;;;;;;5.00;4.12;;;;;;;16.96;60.91;99970.37;1825481;77;21599;-82
2022/06/19 00:53:37;;;;;;;4.03;3.62;;;;;;;16.93;60.95;99971.63;1825873;76;21114;-82
2022/06/19 00:56:05;;;;;;;4.78;3.83;;;;;;;16.88;61.05;99966.03;1807758;76;21010;-83
2022/06/19 00:58:35;;;;;;;5.50;3.92;;;;;;;16.86;61.31;99970.77;1817686;77;21064;-82
2022/06/19 01:01:06;;;;;;;4.15;3.65;;;;;;;16.84;61.30;99970.16;1834538;77;21024;-83
2022/06/19 01:04:08;;;;;;;4.30;3.92;;;;;;;16.82;61.24;99970.35;1823193;77;21474;-82
2022/06/19 01:06:35;;;;;;;5.70;4.00;;;;;;;16.84;61.12;99967.47;1819347;77;21792;-83
2022/06/19 01:09:03;;;;;;;4.03;3.62;;;;;;;16.86;61.20;99968.94;1831750;77;21051;-83
2022/06/19 01:11:33;;;;;;;4.80;4.35;;;;;;;16.86;61.14;99964.92;1829519;76;21057;-85
2022/06/19 01:14:02;;;;;;;5.08;4.53;;;;;;;16.88;61.12;99964.20;1825697;78;21105;-86
2022/06/19 01:16:30;;;;;;;6.40;5.80;;;;;;;16.89;61.06;99960.98;1815344;77;20996;-83
2022/06/19 01:18:58;;;;;;;6.45;5.85;;;;;;;16.90;61.02;99963.47;1825334;77;21999;-83
2022/06/19 01:21:42;;;;;;;6.33;5.78;;;;;;;16.92;61.02;99962.42;1798647;79;20962;-85
2022/06/19 01:24:26;;;;;;;7.37;5.75;;;;;;;16.93;60.94;99966.25;1845530;77;21013;-83
2022/06/19 01:26:58;;;;;;;7.45;5.37;;;;;;;16.94;60.89;99966.58;1820929;77;21005;-83
2022/06/19 01:29:25;;;;;;;6.12;5.55;;;;;;;16.95;60.87;99967.40;1819369;78;21009;-83
2022/06/19 01:31:54;;;;;;;5.90;4.58;;;;;;;16.94;60.85;99973.29;1792031;77;21121;-83
2022/06/19 01:34:35;;;;;;;9.25;5.15;;;;;;;16.94;60.83;99964.39;1822632;77;20990;-82
2022/06/19 01:37:08;;;;;;;7.40;4.83;;;;;;;16.92;60.84;99963.28;1824408;77;21036;-81
2022/06/19 01:39:51;;;;;;;5.53;4.42;;;;;;;16.92;60.90;99971.33;1849048;77;20973;-83
2022/06/19 01:42:18;;;;;;;4.90;4.50;;;;;;;16.90;60.93;99962.13;1859885;77;21036;-81
2022/06/19 01:44:46;;;;;;;5.28;4.17;;;;;;;16.91;60.97;99964.30;1814661;77;21059;-84
2022/06/19 01:47:13;;;;;;;4.87;3.83;;;;;;;16.91;60.98;99964.30;1816910;77;20997;-82
2022/06/19 01:49:43;;;;;;;5.05;4.08;;;;;;;16.90;60.97;99974.20;1827653;78;21024;-85
2022/06/19 01:52:10;;;;;;;3.60;3.30;;;;;;;16.93;60.96;99976.98;1837864;77;21268;-85
2022/06/19 01:54:43;;;;;;;4.67;3.47;;;;;;;16.95;61.00;99970.90;1816618;77;20954;-85
2022/06/19 01:57:11;;;;;;;4.33;3.80;;;;;;;16.98;60.93;99970.50;1812466;77;21105;-82
2022/06/19 01:59:39;;;;;;;4.12;3.55;;;;;;;17.02;60.94;99967.72;1823399;77;21009;-84
2022/06/19 02:02:08;;;;;;;3.62;3.33;;;;;;;17.06;60.84;99968.95;1827495;77;21041;-83
2022/06/19 02:04:35;;;;;;;4.30;3.35;;;;;;;17.09;60.83;99974.42;1835641;77;21033;-86
2022/06/19 02:07:08;;;;;;;4.47;3.70;;;;;;;17.11;60.75;99966.98;1821809;77;20980;-82
2022/06/19 02:09:34;;;;;;;4.25;3.20;;;;;;;17.16;60.71;99973.10;1820130;77;21138;-80
2022/06/19 02:12:02;;;;;;;3.95;3.58;;;;;;;17.20;60.60;99973.00;1801202;77;20998;-79
2022/06/19 02:14:30;;;;;;;3.95;3.35;;;;;;;17.24;60.54;99976.92;1829254;77;20980;-83
2022/06/19 02:16:59;;;;;;;4.08;3.15;;;;;;;17.29;60.44;99975.80;1857261;77;21063;-82
2022/06/19 02:19:27;;;;;;;5.90;3.47;;;;;;;17.32;60.33;99975.36;1857262;77;21044;-82
2022/06/19 02:21:54;;;;;;;3.10;2.80;;;;;;;17.35;60.26;99974.14;1839622;77;21152;-80
2022/06/19 02:24:24;;;;;;;4.72;3.55;;;;;;;17.38;60.12;99978.56;1806074;77;21537;-81
2022/06/19 02:26:51;;;;;;;5.28;3.22;;;;;;;17.41;60.09;99981.38;1822952;77;21032;-84
2022/06/19 02:29:19;;;;;;;4.15;3.75;;;;;;;17.43;60.12;99987.36;1816445;77;21561;-82
2022/06/19 02:31:50;;;;;;;3.70;3.40;;;;;;;17.41;60.09;99982.19;1793702;80;21162;-82
2022/06/19 02:34:39;;;;;;;3.42;3.08;;;;;;;17.41;60.19;99980.84;1792095;78;21535;-82
2022/06/19 02:37:17;;;;;;;4.55;4.15;;;;;;;17.39;60.20;99980.23;1819826;77;21045;-85
2022/06/19 02:40:16;;;;;;;3.87;3.27;;;;;;;17.38;60.30;99987.95;1801698;77;21276;-83
2022/06/19 02:42:44;;;;;;;4.87;3.40;;;;;;;17.38;60.34;99986.61;1822949;77;20977;-82
2022/06/19 02:45:28;;;;;;;4.65;3.00;;;;;;;17.38;60.32;99983.11;1825826;77;21493;-82
2022/06/19 02:47:56;;;;;;;3.40;3.02;;;;;;;17.38;60.12;99987.14;1839819;77;21568;-84
2022/06/19 02:50:28;;;;;;;4.90;3.37;;;;;;;17.39;60.14;99986.13;1826127;77;21005;-81
2022/06/19 02:52:54;;;;;;;5.97;3.22;;;;;;;17.39;60.11;99977.55;1802453;77;21052;-85
2022/06/19 02:55:21;;;;;;;3.65;3.02;;;;;;;17.43;60.22;99981.98;1838900;77;21048;-85
2022/06/19 02:57:49;;;;;;;3.42;3.12;;;;;;;17.45;60.25;99975.89;1820920;77;21044;-86
2022/06/19 03:00:20;;;;;;;3.77;3.45;;;;;;;17.48;60.31;99976.80;1803892;77;21196;-85
2022/06/19 03:03:00;;;;;;;5.78;4.05;;;;;;;17.51;60.28;99979.08;1797699;77;21037;-85
2022/06/19 03:05:28;;;;;;;4.08;3.67;;;;;;;17.54;60.34;99975.14;1793140;79;21017;-85
2022/06/19 03:07:55;;;;;;;8.43;3.55;;;;;;;17.57;60.37;99977.42;1829459;77;21111;-81
2022/06/19 03:10:21;;;;;;;4.22;3.60;;;;;;;17.60;60.40;99967.62;1819905;77;21560;-84
2022/06/19 03:12:49;;;;;;;4.30;3.40;;;;;;;17.62;60.38;99962.34;1800666;78;21022;-82
2022/06/19 03:15:17;;;;;;;3.95;3.52;;;;;;;17.64;60.25;99964.30;1812999;77;20993;-85
2022/06/19 03:17:43;;;;;;;4.45;3.65;;;;;;;17.67;60.25;99959.86;1857588;77;21266;-83
2022/06/19 03:20:14;;;;;;;5.47;3.80;;;;;;;17.71;60.19;99959.42;1802212;77;21072;-83
2022/06/19 03:22:42;;;;;;;3.98;3.58;;;;;;;17.74;60.15;99967.89;1818033;77;21477;-81
2022/06/19 03:25:09;;;;;;;5.58;3.47;;;;;;;17.78;60.15;99965.09;1820454;77;22377;-83
2022/06/19 03:27:35;;;;;;;3.72;3.42;;;;;;;17.81;60.08;99962.00;1828523;76;21456;-83
2022/06/19 03:30:03;;;;;;;3.62;3.33;;;;;;;17.85;60.05;99960.58;1826792;76;21044;-85
2022/06/19 03:32:30;;;;;;;3.70;3.40;;;;;;;17.88;60.08;99959.31;1835117;78;20978;-85
2022/06/19 03:34:56;;;;;;;4.00;3.30;;;;;;;17.92;60.09;99963.75;1837756;76;21462;-86
2022/06/19 03:37:23;;;;;;;4.12;3.72;;;;;;;17.96;60.09;99966.33;1831045;78;21585;-83
2022/06/19 03:39:50;;;;;;;5.37;3.67;;;;;;;17.98;60.10;99962.41;1835353;76;20979;-80
2022/06/19 03:42:16;;;;;;;4.40;3.42;;;;;;;18.02;60.10;99955.57;1831154;76;20945;-84
2022/06/19 03:44:43;;;;;;;4.42;3.40;;;;;;;18.07;60.15;99952.23;1837363;76;21155;-81
2022/06/19 03:47:11;;;;;;;3.85;3.55;;;;;;;18.13;60.07;99961.32;1863307;76;20953;-85
2022/06/19 03:49:37;;;;;;;4.35;3.77;;;;;;;18.19;59.98;99963.97;1828324;76;21066;-89
2022/06/19 03:52:05;;;;;;;3.47;3.17;;;;;;;18.26;59.91;99955.37;1831155;78;21061;-87
2022/06/19 03:54:31;;;;;;;4.15;3.75;;;;;;;18.33;59.86;99956.70;1835976;77;21080;-85
2022/06/19 03:56:59;;;;;;;3.50;3.17;;;;;;;18.40;59.81;99956.66;1836993;76;21017;-84
2022/06/19 03:59:25;;;;;;;5.12;3.45;;;;;;;18.48;59.63;99957.75;1836588;76;20950;-84
2022/06/19 04:01:53;;;;;;;5.03;3.70;;;;;;;18.56;59.54;99965.59;1826754;76;21126;-84
2022/06/19 04:04:19;;;;;;;4.05;3.65;;;;;;;18.62;59.44;99953.12;1818930;76;21006;-85
2022/06/19 04:06:46;;;;;;;4.20;3.80;;;;;;;18.69;59.39;99953.09;1803317;79;21541;-82
2022/06/19 04:09:16;;;;;;;4.53;4.12;;;;;;;18.74;59.32;99954.09;1832473;76;21044;-81
2022/06/19 04:11:44;;;;;;;4.40;4.00;;;;;;;18.80;59.32;99952.44;1830189;76;21009;-83
2022/06/19 04:14:12;;;;;;;4.35;3.47;;;;;;;18.85;59.34;99953.94;1839308;76;21131;-82
2022/06/19 04:16:38;;;;;;;4.28;3.87;;;;;;;18.91;59.47;99961.17;1835759;76;21510;-84
2022/06/19 04:19:06;;;;;;;4.22;3.70;;;;;;;18.97;59.49;99964.86;1816395;77;21549;-84
2022/06/19 04:21:38;;;;;;;3.80;3.40;;;;;;;19.03;59.25;99962.64;1802196;79;21547;-82
2022/06/19 04:24:05;;;;;;;3.85;3.45;;;;;;;19.10;59.25;99965.27;1819442;77;21524;-82
2022/06/19 04:26:35;;;;;;;4.47;4.08;;;;;;;19.16;59.09;99964.39;1826368;76;21103;-84
2022/06/19 04:29:01;;;;;;;4.10;3.62;;;;;;;19.22;59.23;99971.09;1803488;77;21005;-83
2022/06/19 04:31:28;;;;;;;3.83;3.52;;;;;;;19.28;59.13;99965.34;1825246;77;21009;-83
2022/06/19 04:33:54;;;;;;;4.28;3.47;;;;;;;19.37;59.22;99959.99;1820039;78;21119;-83
2022/06/19 04:36:24;;;;;;;4.70;3.52;;;;;;;19.51;59.02;99958.50;1803138;77;21116;-82
2022/06/19 04:38:51;;;;;;;5.55;3.52;;;;;;;19.64;58.96;99963.77;1821646;77;21269;-82
2022/06/19 04:41:38;;;;;;;4.33;3.50;;;;;;;19.79;58.67;99958.06;1825546;77;21279;-82
2022/06/19 04:44:08;;;;;;;4.55;3.85;;;;;;;19.93;58.14;99958.73;1827920;77;21004;-82
2022/06/19 04:46:35;;;;;;;4.42;3.50;;;;;;;20.06;58.43;99960.47;1824110;77;20957;-80
2022/06/19 04:49:02;;;;;;;5.50;4.00;;;;;;;20.20;58.24;99965.50;1802633;78;21044;-80
2022/06/19 04:51:29;;;;;;;5.08;3.65;;;;;;;20.37;57.79;99952.72;1827143;76;21407;-85
2022/06/19 04:53:55;;;;;;;4.22;3.75;;;;;;;20.52;57.60;99951.80;1828739;77;20993;-82
2022/06/19 04:56:22;;;;;;;3.70;3.40;;;;;;;20.69;57.39;99952.55;1825324;77;21024;-84
2022/06/19 04:58:49;;;;;;;3.35;3.10;;;;;;;20.83;56.73;99953.99;1827070;77;21041;-83
2022/06/19 05:01:30;;;;;;;3.80;3.40;;;;;;;20.93;56.85;99956.94;1823341;76;21040;-82
2022/06/19 05:03:59;;;;;;;3.52;3.17;;;;;;;21.00;56.40;99960.38;1825707;77;21295;-82
2022/06/19 05:06:26;;;;;;;3.37;3.08;;;;;;;21.05;55.94;99958.85;1801029;77;21529;-83
2022/06/19 05:08:53;;;;;;;3.83;3.50;;;;;;;21.09;56.27;99960.03;1824716;76;21048;-82
2022/06/19 05:11:22;;;;;;;4.28;3.10;;;;;;;21.14;56.24;99963.69;1826355;77;21071;-85
2022/06/19 05:13:50;;;;;;;3.33;3.02;;;;;;;21.21;56.40;99959.01;1809385;77;21015;-84
2022/06/19 05:16:22;;;;;;;3.40;3.08;;;;;;;21.29;56.17;99963.25;1832273;77;20993;-82
2022/06/19 05:18:49;;;;;;;3.33;3.02;;;;;;;21.36;55.77;99959.91;1805857;77;21025;-86
2022/06/19 05:21:16;;;;;;;3.17;2.98;;;;;;;21.43;55.45;99961.14;1824774;77;21499;-82
2022/06/19 05:23:45;;;;;;;2.70;2.50;;;;;;;21.56;55.62;99973.64;1830022;77;21075;-83
2022/06/19 05:26:18;;;;;;;3.42;2.90;;;;;;;21.68;55.07;99970.94;1823795;75;21052;-84
2022/06/19 05:28:45;;;;;;;3.33;3.05;;;;;;;21.76;54.86;99968.69;1818560;77;21090;-86
2022/06/19 05:31:12;;;;;;;2.90;2.70;;;;;;;21.82;54.69;99972.33;1815669;77;21016;-82
2022/06/19 05:33:38;;;;;;;2.60;2.40;;;;;;;21.89;54.52;99975.73;1819482;77;20991;-83
2022/06/19 05:36:05;;;;;;;3.40;3.10;;;;;;;21.95;54.25;99973.43;1819386;77;21025;-81
2022/06/19 05:38:33;;;;;;;5.03;3.10;;;;;;;22.01;54.19;99973.02;1812531;77;21045;-85
2022/06/19 05:41:00;;;;;;;4.58;3.12;;;;;;;22.07;54.29;99976.65;1822431;77;21903;-86
2022/06/19 05:43:28;;;;;;;3.20;2.83;;;;;;;22.09;54.34;99976.69;1825744;77;21580;-84
2022/06/19 05:45:56;;;;;;;3.20;2.90;;;;;;;22.14;54.22;99973.30;1826118;78;21021;-85
2022/06/19 05:48:25;;;;;;;3.15;2.85;;;;;;;22.17;54.00;99973.64;1806950;78;20978;-83
2022/06/19 05:51:14;;;;;;;3.05;2.75;;;;;;;22.19;54.09;99974.22;1799867;77;21038;-81
2022/06/19 05:53:44;;;;;;;3.12;2.83;;;;;;;22.23;53.83;99979.95;1825962;78;21104;-84
2022/06/19 05:56:10;;;;;;;3.08;2.62;;;;;;;22.27;53.46;99978.47;1830076;78;20992;-82
2022/06/19 05:58:38;;;;;;;6.47;3.22;;;;;;;22.27;53.64;99983.04;1837219;77;20931;-84
2022/06/19 06:01:06;;;;;;;3.50;3.08;;;;;;;22.31;54.05;99986.91;1829107;77;20974;-84
2022/06/19 06:03:33;;;;;;;4.08;3.05;;;;;;;22.34;53.92;99981.03;1820611;77;21012;-74
2022/06/19 06:06:04;;;;;;;3.10;2.90;;;;;;;22.38;54.07;99980.30;1813955;77;21952;-75
2022/06/19 06:08:31;;;;;;;2.67;2.47;;;;;;;22.43;54.00;99975.53;1824974;78;21037;-73
2022/06/19 06:10:59;;;;;;;3.12;2.80;;;;;;;22.50;53.55;99980.28;1814898;77;21080;-75
2022/06/19 06:13:29;;;;;;;2.85;2.65;;;;;;;22.55;53.87;99980.91;1821417;77;21044;-73
2022/06/19 06:15:55;;;;;;;2.92;2.72;;;;;;;22.60;53.27;99977.45;1821938;77;21017;-74
2022/06/19 06:18:22;;;;;;;5.08;3.25;;;;;;;22.64;53.31;99984.03;1810207;78;21120;-73
2022/06/19 06:20:58;;;;;;;4.20;2.65;;;;;;;22.67;53.07;99984.91;1818863;77;21009;-74
2022/06/19 06:23:24;;;;;;;4.75;2.50;;;;;;;22.70;52.55;99990.67;1816153;77;21544;-74
2022/06/19 06:26:08;;;;;;;3.80;2.62;;;;;;;22.73;52.58;99982.59;1820842;77;21008;-74
2022/06/19 06:28:37;;;;;;;2.50;2.12;;;;;;;22.74;51.93;99981.53;1817880;77;21494;-75
2022/06/19 06:31:04;;;;;;;2.42;2.05;;;;;;;22.74;51.74;99977.47;1833776;77;21229;-73
2022/06/19 06:33:32;;;;;;;2.72;2.37;;;;;;;22.75;51.88;99981.81;1821709;78;21141;-73
2022/06/19 06:35:59;;;;;;;2.75;2.10;;;;;;;22.75;51.92;99978.59;1824719;77;21481;-71
2022/06/19 06:38:25;;;;;;;4.20;2.50;;;;;;;22.81;51.55;99983.54;1815224;77;21067;-74
2022/06/19 06:40:54;;;;;;;2.50;2.20;;;;;;;22.85;52.00;99987.44;1803799;77;21064;-71
2022/06/19 06:43:21;;;;;;;2.08;1.87;;;;;;;22.92;51.61;99981.31;1818869;77;22055;-73
2022/06/19 06:45:48;;;;;;;4.42;2.17;;;;;;;22.97;51.37;99974.64;1809552;77;21521;-72
2022/06/19 06:48:16;;;;;;;2.98;2.47;;;;;;;23.03;51.41;99975.58;1827077;77;21062;-72
2022/06/19 06:50:42;;;;;;;2.85;2.50;;;;;;;23.08;50.85;99978.90;1819490;77;20957;-74
2022/06/19 06:53:09;;;;;;;2.65;2.45;;;;;;;23.13;51.32;99976.28;1825208;77;22053;-73
2022/06/19 06:55:40;;;;;;;3.87;2.42;;;;;;;23.21;51.47;99969.09;1808574;77;21829;-74
2022/06/19 06:58:09;;;;;;;3.35;2.40;;;;;;;23.30;51.09;99979.83;1812284;77;21470;-74
2022/06/19 07:00:36;;;;;;;2.47;2.08;;;;;;;23.34;51.07;99972.03;1823420;77;21048;-74
2022/06/19 07:03:03;;;;;;;4.08;2.42;;;;;;;;;;1838097;77;21092;-77
2022/06/19 07:05:30;;;;;;;3.10;2.22;;;;;;;23.40;50.65;99969.68;1823466;77;21579;-74
2022/06/19 07:07:56;;;;;;;3.20;2.37;;;;;;;23.42;50.81;99969.44;1819150;77;21448;-73
2022/06/19 07:10:23;;;;;;;3.10;2.47;;;;;;;23.43;50.51;99969.70;1820442;77;21061;-72
2022/06/19 07:12:50;;;;;;;2.58;2.25;;;;;;;23.40;50.64;99962.91;1830999;77;21587;-73
2022/06/19 07:15:16;;;;;;;2.77;2.50;;;;;;;23.48;49.57;99968.44;1808432;77;21029;-73
2022/06/19 07:17:43;;;;;;;4.20;2.30;;;;;;;23.54;49.33;99964.73;1814851;77;21072;-74
2022/06/19 07:20:11;;;;;;;2.92;2.42;;;;;;;23.57;49.51;99950.69;1802250;76;21119;-74
2022/06/19 07:22:38;;;;;;;2.50;2.30;;;;;;;23.61;49.66;99946.95;1822449;77;21036;-74
2022/06/19 07:25:06;;;;;;;2.27;2.08;;;;;;;23.66;49.42;99941.06;1757218;80;21030;-75
2022/06/19 07:27:33;;;;;;;2.42;2.22;;;;;;;23.73;49.21;99938.16;1759239;79;21009;-74
2022/06/19 07:30:01;;;;;;;3.02;2.37;;;;;;;23.79;49.23;99929.59;1758055;80;21020;-75
2022/06/19 07:32:27;;;;;;;2.95;2.33;;;;;;;23.84;49.55;99928.31;1739672;80;21305;-73
2022/06/19 07:34:53;;;;;;;2.27;2.08;;;;;;;23.91;49.16;99926.22;1748577;81;21092;-73
2022/06/19 07:37:20;;;;;;;3.33;2.25;;;;;;;23.99;48.77;99931.73;1755713;80;21013;-74
2022/06/19 07:39:46;;;;;;;2.98;2.30;;;;;;;24.05;48.23;99923.42;1746829;80;21116;-74
2022/06/19 07:43:14;;;;;;;2.58;2.37;;;;;;;24.22;48.45;99910.30;1883225;75;22512;-75
2022/06/19 07:45:41;;;;;;;2.52;2.33;;;;;;;24.25;48.69;99913.88;1820950;78;21572;-74
2022/06/19 07:50:56;;;;;;;2.50;2.30;;;;;;;24.33;48.38;99903.38;1821150;78;21026;-74
2022/06/19 07:53:22;;;;;;;3.55;2.40;;;;;;;24.41;48.52;99908.88;1781635;80;21154;-74
2022/06/19 07:55:49;;;;;;;2.70;2.37;;;;;;;24.46;47.99;99896.73;1816159;78;20942;-74
2022/06/19 07:58:15;;;;;;;3.27;2.62;;;;;;;24.51;47.86;99902.25;1804849;78;21497;-75
2022/06/19 08:00:42;;;;;;;2.60;2.40;;;;;;;24.57;47.78;99905.00;1792397;79;21818;-72
2022/06/19 08:03:09;;;;;;;2.95;2.47;;;;;;;24.67;47.07;99910.00;1819161;77;21047;-74
2022/06/19 08:05:37;;;;;;;2.45;2.25;;;;;;;24.78;46.31;99909.54;1786859;80;20977;-75
2022/06/19 08:08:08;;;;;;;2.77;2.12;;;;;;;24.84;46.13;99904.46;1820770;78;21108;-77
2022/06/19 08:10:37;;;;;;;2.40;2.20;;;;;;;24.90;46.31;99911.56;1820061;78;21024;-75
2022/06/19 08:13:06;;;;;;;2.52;1.85;;;;;;;24.97;44.56;99907.81;1789353;79;21578;-74
2022/06/19 08:15:35;;;;;;;2.00;1.80;;;;;;;24.99;44.96;99906.47;1778931;79;21097;-73
2022/06/19 08:18:02;;;;;;;2.40;2.20;;;;;;;24.99;45.17;99908.37;1793308;79;21072;-76
2022/06/19 08:20:29;;;;;;;2.25;1.98;;;;;;;24.98;45.12;99912.99;1788089;79;22020;-75
2022/06/19 08:22:56;;;;;;;3.58;2.20;;;;;;;25.02;45.47;99902.42;1786656;79;21080;-74
2022/06/19 08:25:23;;;;;;;3.20;2.15;;;;;;;25.11;45.33;99904.41;1778965;79;21198;-75
2022/06/19 08:27:51;;;;;;;2.15;1.98;;;;;;;25.20;45.47;99906.08;1780002;79;21013;-75
2022/06/19 08:30:22;;;;;;;2.42;1.95;;;;;;;25.29;44.50;99905.10;1794362;78;21005;-73
2022/06/19 08:32:48;;;;;;;3.00;2.10;;;;;;;25.38;44.86;99908.13;1821403;77;21005;-74
2022/06/19 08:35:15;;;;;;;2.70;2.30;;;;;;;25.44;44.23;99898.40;1767508;79;21498;-77
2022/06/19 08:37:42;;;;;;;2.58;2.30;;;;;;;25.50;44.40;99906.05;1772164;79;21702;-78
2022/06/19 08:40:43;;;;;;;1.90;1.80;;;;;;;25.58;44.37;99909.63;1774536;79;21123;-79
2022/06/19 08:43:29;;;;;;;2.20;1.95;;;;;;;25.63;44.43;99897.42;1747921;79;21082;-78
2022/06/19 08:46:03;;;;;;;4.05;1.87;;;;;;;25.75;44.01;99895.84;1749864;81;21043;-78
2022/06/19 08:49:00;;;;;;;2.00;1.90;;;;;;;25.90;43.21;99897.80;1742449;81;21071;-79
2022/06/19 08:51:57;;;;;;;2.60;2.40;;;;;;;25.97;42.57;99888.08;1829514;77;21231;-77
2022/06/19 08:54:52;;;;;;;2.80;1.98;;;;;;;26.08;42.70;99891.11;1813674;77;20971;-77
2022/06/19 08:57:30;;;;;;;2.67;2.37;;;;;;;26.26;43.10;99888.44;1783997;78;21082;-78
2022/06/19 09:00:17;;;;;;;2.17;2.08;;;;;;;26.43;42.68;99889.02;1785466;79;20997;-80
2022/06/19 09:03:09;;;;;;;2.47;2.15;;;;;;;26.54;42.33;99889.86;1820699;77;20970;-78
2022/06/19 09:05:49;;;;;;;2.20;2.00;;;;;;;26.61;42.16;99891.78;1816763;77;21279;-77
2022/06/19 09:08:56;;;;;;;2.33;2.10;;;;;;;26.73;42.20;99878.45;1822431;77;21068;-77
2022/06/19 09:11:48;;;;;;;2.20;2.00;;;;;;;26.92;42.05;99888.27;1816471;77;20990;-79
2022/06/19 09:14:36;;;;;;;3.15;2.00;;;;;;;27.09;41.02;99877.89;1837700;77;21053;-78
2022/06/19 09:17:21;;;;;;;1.95;1.85;;;;;;;27.29;41.13;99866.71;1834420;77;21021;-78
2022/06/19 09:19:54;;;;;;;2.35;2.15;;;;;;;27.53;40.08;99876.48;1839167;77;21531;-79
2022/06/19 09:22:35;;;;;;;2.10;1.90;;;;;;;27.61;40.00;99860.34;1833181;77;21081;-77
2022/06/19 09:25:30;;;;;;;2.55;2.17;;;;;;;27.84;39.68;99862.17;1823322;77;21033;-78
2022/06/19 09:28:05;;;;;;;2.42;2.12;;;;;;;28.16;39.20;99854.95;1815833;77;20990;-79
2022/06/19 09:30:41;;;;;;;1.95;1.75;;;;;;;28.72;38.97;99860.56;1816170;77;21006;-79
2022/06/19 09:33:19;;;;;;;2.00;1.90;;;;;;;29.18;37.95;99862.91;1833723;77;21194;-79
2022/06/19 09:36:14;;;;;;;2.22;1.80;;;;;;;29.52;37.59;99862.58;1839022;77;21002;-78
2022/06/19 09:38:48;;;;;;;2.47;1.95;;;;;;;29.85;36.75;99851.23;1841418;77;21046;-77
2022/06/19 09:41:22;;;;;;;4.45;2.20;;;;;;;30.23;36.79;99850.44;1829419;77;21055;-81
2022/06/19 09:44:06;;;;;;;2.02;1.92;;;;;;;30.50;35.83;99853.89;1831403;77;21017;-77
2022/06/19 09:46:47;;;;;;;2.37;2.00;;;;;;;30.54;35.74;99841.25;1803647;77;21462;-78
2022/06/19 09:49:24;;;;;;;2.10;1.90;;;;;;;30.81;35.66;99847.91;1842310;77;21013;-78
2022/06/19 09:52:13;;;;;;;1.90;1.75;;;;;;;31.08;34.90;99845.81;1825960;77;21010;-76
2022/06/19 09:54:52;;;;;;;2.40;1.75;;;;;;;31.38;34.72;99854.59;1830886;76;21065;-77
2022/06/19 09:57:31;;;;;;;2.37;2.10;;;;;;;31.60;34.91;99847.84;1832246;76;20958;-77
2022/06/19 10:00:03;;;;;;;4.08;1.90;;;;;;;31.67;34.61;99851.00;1828020;76;21546;-79
2022/06/19 10:02:46;;;;;;;2.70;1.72;;;;;;;31.65;34.57;99851.87;1831944;76;21045;-80
2022/06/19 10:05:45;;;;;;;2.20;1.90;;;;;;;31.88;34.88;99846.45;1847822;76;20975;-79
2022/06/19 10:08:26;;;;;;;2.50;2.02;;;;;;;32.30;34.21;99843.88;1820943;77;21033;-79
2022/06/19 10:10:59;;;;;;;2.10;2.00;;;;;;;32.51;33.67;99857.95;1822540;77;21013;-78
2022/06/19 10:13:34;;;;;;;2.10;1.90;;;;;;;32.47;33.25;99857.50;1815577;77;21784;-79
2022/06/19 10:16:01;;;;;;;2.25;1.90;;;;;;;32.50;33.65;99852.19;1827655;77;21080;-79
2022/06/19 10:18:34;;;;;;;2.15;1.90;;;;;;;32.67;33.70;99846.04;1834852;77;21025;-79
2022/06/19 10:21:09;;;;;;;3.87;2.17;;;;;;;32.87;33.42;99857.64;1824108;77;21002;-80
2022/06/19 10:24:00;;;;;;;2.00;1.90;;;;;;;33.09;32.91;99860.94;1842524;76;21639;-84
2022/06/19 10:26:43;;;;;;;3.55;2.10;;;;;;;33.20;33.07;99857.36;1844628;77;21141;-79
2022/06/19 10:29:34;;;;;;;2.10;1.70;;;;;;;33.35;32.93;99842.38;1843167;76;20942;-79
2022/06/19 10:32:18;;;;;;;2.35;2.05;;;;;;;33.48;32.82;99850.52;1829347;76;20990;-76
2022/06/19 10:35:09;;;;;;;2.42;2.00;;;;;;;33.59;32.81;99851.59;1835513;76;21034;-79
2022/06/19 10:37:51;;;;;;;2.42;2.20;;;;;;;33.62;32.80;99844.08;1830147;77;20982;-78
2022/06/19 10:40:39;;;;;;;1.90;1.80;;;;;;;33.62;32.90;99839.95;1834022;77;21591;-79
2022/06/19 10:43:22;;;;;;;2.42;2.20;;;;;;;33.68;32.97;99849.13;1844831;77;21063;-80
2022/06/19 10:45:52;;;;;;;2.30;2.10;;;;;;;33.83;32.86;99845.70;1831483;77;21460;-77
2022/06/19 10:48:47;;;;;;;2.33;2.00;;;;;;;33.76;32.67;99841.22;1839440;77;20998;-77
2022/06/19 10:51:38;;;;;;;3.83;2.50;;;;;;;33.67;32.75;99846.15;1847475;77;21276;-78
2022/06/19 10:54:35;;;;;;;1.95;1.85;;;;;;;33.80;32.71;99843.57;1812779;77;21134;-76
2022/06/19 10:57:21;;;;;;;2.22;1.92;;;;;;;34.00;32.42;99830.56;1832962;77;21002;-79
2022/06/19 10:59:48;;;;;;;2.98;2.35;;;;;;;34.44;32.29;99836.92;1837319;77;21092;-78
2022/06/19 11:05:32;;;;;;;2.47;2.27;;;;;;;34.10;32.03;99825.30;1829786;77;21029;-78
2022/06/19 11:07:59;;;;;;;2.37;2.08;;;;;;;33.91;32.42;99830.31;1836998;77;21098;-78
2022/06/19 11:10:36;;;;;;;4.28;2.00;;;;;;;33.87;32.85;99835.08;1813975;76;21015;-80
2022/06/19 11:13:05;;;;;;;2.87;1.80;;;;;;;33.92;32.38;99825.86;1840136;77;21468;-78
2022/06/19 11:15:37;;;;;;;2.02;1.82;;;;;;;33.77;32.69;99811.98;1833720;77;20954;-80
2022/06/19 11:18:16;;;;;;;2.33;2.00;;;;;;;33.82;32.86;99815.97;1828157;77;21497;-78
2022/06/19 11:21:00;;;;;;;2.35;2.08;;;;;;;34.07;32.49;99800.58;1832169;77;21379;-78
2022/06/19 11:23:37;;;;;;;2.22;2.02;;;;;;;34.12;32.17;99830.49;1816019;76;21017;-77
2022/06/19 11:26:13;;;;;;;3.60;2.00;;;;;;;34.03;32.44;99816.69;1842402;77;21603;-78
2022/06/19 11:28:50;;;;;;;2.00;1.82;;;;;;;33.96;32.38;99817.19;1835558;76;20990;-79
2022/06/19 11:31:37;;;;;;;2.33;2.12;;;;;;;33.96;32.34;99806.71;1807217;77;21030;-79
2022/06/19 11:37:37;;;;;;;2.92;2.67;;;;;;;34.36;32.48;99789.46;1812867;77;21009;-79
2022/06/19 11:40:11;;;;;;;2.77;2.30;;;;;;;34.79;32.04;99791.91;1814968;77;21058;-80
2022/06/19 11:42:42;;;;;;;2.75;2.20;;;;;;;35.16;31.43;99793.66;1844451;76;20990;-79
2022/06/19 11:45:18;;;;;;;2.90;2.12;;;;;;;35.33;31.35;99794.98;1838405;77;21073;-78
2022/06/19 11:47:59;;;;;;;2.60;2.10;;;;;;;35.52;31.29;99789.00;1842980;76;20990;-79
2022/06/19 11:50:39;;;;;;;2.75;2.40;;;;;;;35.61;30.82;99813.24;1824496;77;21002;-79
2022/06/19 11:53:15;;;;;;;2.52;2.33;;;;;;;35.42;31.09;99787.44;1794167;79;21001;-79
2022/06/19 11:55:48;;;;;;;2.55;2.15;;;;;;;35.55;31.17;99787.54;1765262;80;21054;-77
2022/06/19 11:58:28;;;;;;;7.33;2.52;;;;;;;35.59;31.34;99784.34;1772215;79;21158;-76
2022/06/19 12:01:11;;;;;;;2.98;2.12;;;;;;;35.76;31.25;99782.87;1773280;79;21862;-78
2022/06/19 12:03:45;;;;;;;2.10;2.00;;;;;;;36.02;30.63;99778.50;1802287;79;20966;-80
2022/06/19 12:06:13;;;;;;;2.67;2.35;;;;;;;36.07;30.83;99783.03;1760260;79;21034;-77
2022/06/19 12:09:01;;;;;;;2.70;2.20;;;;;;;35.92;31.02;99778.92;1844109;76;21161;-80